Rechercher aéroport 
image banner adimage banner adimage banner ad
image banner ad

PN36 - Rayne

Situé à Home, United States

ICAO - PN36, IATA -

Données fournies par Airmate  

Information générale

Coordonnées: N40°44'0" W79°4'2"
Élévation : 1420 feet MSL.
Variation magnétique : -08° East
Voir autres Aéroports à Pennsylvania

Données opérationnelles

Special qualification required
Heure actuelle UTC:
Heure actuelle locale:
METAR: KIDI 152135Z AUTO 35007G17KT 10SM FEW050 23/12 A2994 RMK A01
Voir NOTAMs / SUP AIP / TFR affectant cet aéroport [VIEW]
Fréquences de communication: [VIEW]

Pistes:

Identifiant RWYQFULongueur (ft)Largeur (ft)SurfaceLDA (ft)
091600100GRASS
271600100GRASS

Coordonnées de l'aéroport

Adresse: Home United States

Vue satellite de PN36